createdAt,value
2019-04-22T00:01:38.225Z,22.50
2019-04-22T00:04:11.034Z,22.50
2019-04-22T00:06:57.441Z,22.50
2019-04-22T00:09:31.117Z,22.50
2019-04-22T00:12:06.078Z,22.50
2019-04-22T00:14:28.081Z,22.50
2019-04-22T00:17:07.225Z,22.50
2019-04-22T00:19:36.026Z,22.50
2019-04-22T00:22:13.945Z,22.50
2019-04-22T00:24:30.725Z,22.50
2019-04-22T00:27:06.711Z,22.50
2019-04-22T00:29:49.832Z,22.60
2019-04-22T00:32:05.515Z,22.50
2019-04-22T00:34:42.583Z,22.60
2019-04-22T00:37:16.797Z,22.60
2019-04-22T00:39:46.598Z,22.60
2019-04-22T00:42:18.105Z,22.60
2019-04-22T00:44:47.042Z,22.60
2019-04-22T00:47:23.302Z,22.60
2019-04-22T00:50:12.679Z,22.60
2019-04-22T00:52:19.698Z,22.60
2019-04-22T00:54:45.599Z,22.50
2019-04-22T00:57:15.845Z,22.60
2019-04-22T00:59:46.853Z,22.60
2019-04-22T01:02:20.220Z,22.50
2019-04-22T01:04:49.436Z,22.60
2019-04-22T01:07:17.547Z,22.60
2019-04-22T01:09:52.130Z,22.50
2019-04-22T01:12:21.199Z,22.50
2019-04-22T01:14:47.259Z,22.50
2019-04-22T01:17:17.575Z,22.50
2019-04-22T01:19:50.980Z,22.50
2019-04-22T01:22:17.566Z,22.60
2019-04-22T01:24:48.634Z,22.50
2019-04-22T01:27:30.660Z,22.50
2019-04-22T01:29:55.563Z,22.50
2019-04-22T01:32:21.023Z,22.60
2019-04-22T01:34:59.029Z,22.50
2019-04-22T01:37:28.879Z,22.50
2019-04-22T01:40:09.873Z,22.50
2019-04-22T01:42:42.761Z,22.50
2019-04-22T01:45:06.970Z,22.50
2019-04-22T01:47:39.557Z,22.60
2019-04-22T01:50:06.275Z,22.60
2019-04-22T01:52:41.661Z,22.50
2019-04-22T01:57:39.470Z,22.50
2019-04-22T02:00:00.949Z,22.50
2019-04-22T02:02:44.082Z,22.50
2019-04-22T02:05:15.741Z,22.50
2019-04-22T02:07:41.805Z,22.50
2019-04-22T02:10:12.698Z,22.50
2019-04-22T02:12:38.611Z,22.50
2019-04-22T02:15:12.302Z,22.50
2019-04-22T02:17:47.783Z,22.50
2019-04-22T02:20:13.529Z,22.50
2019-04-22T02:23:42.872Z,22.50
2019-04-22T02:25:53.103Z,22.50
2019-04-22T02:28:26.061Z,22.50
2019-04-22T02:31:16.915Z,22.50
2019-04-22T02:36:08.107Z,22.50
2019-04-22T02:38:34.982Z,22.50
2019-04-22T02:41:13.534Z,22.50
2019-04-22T02:43:34.242Z,22.50
2019-04-22T02:46:13.576Z,22.50
2019-04-22T02:48:35.746Z,22.50
2019-04-22T02:53:48.701Z,22.50
2019-04-22T02:56:04.925Z,22.50
2019-04-22T02:58:37.313Z,22.50
2019-04-22T03:01:05.954Z,22.50
2019-04-22T03:03:59.174Z,22.50
2019-04-22T03:06:06.557Z,22.50
2019-04-22T03:13:38.195Z,22.50
2019-04-22T03:18:41.969Z,22.50
2019-04-22T03:21:00.229Z,22.50
2019-04-22T03:23:38.361Z,22.50
2019-04-22T03:26:14.149Z,22.50
2019-04-22T03:28:33.118Z,22.50
2019-04-22T03:31:34.321Z,22.50
2019-04-22T03:34:17.745Z,22.50
2019-04-22T03:36:57.296Z,22.50
2019-04-22T03:39:06.274Z,22.50
2019-04-22T03:41:41.384Z,22.50
2019-04-22T03:44:17.595Z,22.50
2019-04-22T03:46:21.638Z,22.50
2019-04-22T03:49:02.011Z,22.50
2019-04-22T03:51:40.710Z,22.50
2019-04-22T03:54:03.491Z,22.50
2019-04-22T03:56:56.497Z,22.50
2019-04-22T03:58:58.645Z,22.50
2019-04-22T04:01:29.618Z,22.50
2019-04-22T04:04:06.727Z,22.50
2019-04-22T04:06:36.580Z,22.50
2019-04-22T04:08:51.264Z,22.50
2019-04-22T04:11:25.178Z,22.50
2019-04-22T04:14:01.745Z,22.50
2019-04-22T04:16:21.801Z,22.50
2019-04-22T04:18:58.176Z,22.50
2019-04-22T04:24:25.837Z,22.50
2019-04-22T04:26:39.397Z,22.50
2019-04-22T04:33:53.912Z,22.50
2019-04-22T04:36:28.677Z,22.50
2019-04-22T04:38:51.926Z,22.50
2019-04-22T04:41:34.144Z,22.50
2019-04-22T04:46:47.393Z,22.50
2019-04-22T04:49:04.071Z,22.50
2019-04-22T04:51:32.965Z,22.40
2019-04-22T04:54:01.253Z,22.50
2019-04-22T04:56:34.405Z,22.40
2019-04-22T04:59:05.975Z,22.40
2019-04-22T05:09:16.796Z,22.40
2019-04-22T05:13:59.193Z,22.40
2019-04-22T05:16:34.570Z,22.40
2019-04-22T05:19:02.461Z,22.40
2019-04-22T05:21:21.946Z,22.40
2019-04-22T05:23:53.542Z,22.40
2019-04-22T05:28:49.987Z,22.50
2019-04-22T05:31:23.635Z,22.40
2019-04-22T05:33:48.199Z,22.40
2019-04-22T05:36:20.332Z,22.40
2019-04-22T05:38:53.656Z,22.50
2019-04-22T05:41:26.619Z,22.50
2019-04-22T05:43:57.034Z,22.40
2019-04-22T05:46:20.742Z,22.50
2019-04-22T05:48:55.305Z,22.40
2019-04-22T05:51:24.273Z,22.50
2019-04-22T05:53:47.913Z,22.50
2019-04-22T05:56:26.761Z,22.50
2019-04-22T05:58:52.793Z,22.50
2019-04-22T06:06:17.947Z,22.50
2019-04-22T06:08:51.223Z,22.50
2019-04-22T06:11:25.772Z,22.50
2019-04-22T06:13:46.841Z,22.50
2019-04-22T06:16:26.314Z,22.50
2019-04-22T06:18:58.290Z,22.50
2019-04-22T06:21:26.787Z,22.40
2019-04-22T06:23:54.315Z,22.50
2019-04-22T06:26:31.927Z,22.50
2019-04-22T06:28:54.680Z,22.50
2019-04-22T06:31:24.443Z,22.50
2019-04-22T06:33:54.747Z,22.50
2019-04-22T06:36:26.339Z,22.50
2019-04-22T06:38:55.957Z,22.50
2019-04-22T06:41:27.263Z,22.50
2019-04-22T06:43:58.508Z,22.50
2019-04-22T06:46:29.909Z,22.50
2019-04-22T06:48:54.757Z,22.50
2019-04-22T06:51:27.009Z,22.50
2019-04-22T06:54:00.092Z,22.50
2019-04-22T06:56:22.354Z,22.50
2019-04-22T06:58:52.361Z,22.50
2019-04-22T07:03:55.053Z,22.60
2019-04-22T07:06:26.146Z,22.50
2019-04-22T07:09:14.039Z,22.60
2019-04-22T07:11:26.640Z,22.60
2019-04-22T07:13:57.463Z,22.60
2019-04-22T07:16:26.217Z,22.60
2019-04-22T07:18:56.859Z,22.60
2019-04-22T07:21:27.709Z,22.60
2019-04-22T07:24:18.182Z,22.60
2019-04-22T07:26:30.173Z,22.60
2019-04-22T07:28:57.966Z,22.60
2019-04-22T07:31:27.254Z,22.60
2019-04-22T07:34:03.722Z,22.60
2019-04-22T07:39:01.951Z,22.70
2019-04-22T07:41:27.072Z,22.70
2019-04-22T07:46:27.978Z,22.70
2019-04-22T07:49:00.022Z,22.70
2019-04-22T07:51:31.263Z,22.80
2019-04-22T07:53:55.837Z,22.80
2019-04-22T07:56:27.919Z,22.80
2019-04-22T07:58:55.571Z,22.80
2019-04-22T08:01:26.616Z,22.80
2019-04-22T08:06:34.613Z,22.80
2019-04-22T08:09:01.773Z,22.80
2019-04-22T08:13:58.828Z,22.70
2019-04-22T08:16:28.489Z,22.80
2019-04-22T08:19:04.115Z,22.70
2019-04-22T08:21:30.208Z,22.70
2019-04-22T08:24:02.750Z,22.80
2019-04-22T08:26:32.117Z,22.90
2019-04-22T08:29:21.648Z,22.90
2019-04-22T08:32:01.102Z,22.90
2019-04-22T08:34:19.564Z,22.90
2019-04-22T08:37:14.615Z,23.00
2019-04-22T08:39:23.141Z,23.00
2019-04-22T08:41:43.502Z,23.00
2019-04-22T08:44:27.637Z,23.00
2019-04-22T08:47:01.818Z,23.00
2019-04-22T08:49:18.046Z,23.00
2019-04-22T08:51:49.360Z,23.00
2019-04-22T08:54:21.960Z,23.00
2019-04-22T08:56:49.390Z,23.00
2019-04-22T08:59:15.194Z,23.10
2019-04-22T09:01:52.009Z,23.10
2019-04-22T09:04:16.253Z,23.10
2019-04-22T09:07:08.723Z,23.10
2019-04-22T09:09:19.608Z,23.10
2019-04-22T09:11:56.400Z,23.10
2019-04-22T09:14:25.672Z,23.20
2019-04-22T09:16:49.873Z,23.20
2019-04-22T09:19:22.524Z,23.20
2019-04-22T09:21:57.528Z,23.30
2019-04-22T09:24:23.438Z,23.30
2019-04-22T09:26:58.122Z,23.40
2019-04-22T09:29:30.079Z,23.40
2019-04-22T09:32:01.040Z,23.40
2019-04-22T09:34:23.514Z,23.40
2019-04-22T09:36:58.626Z,23.40
2019-04-22T09:39:30.254Z,23.50
2019-04-22T09:41:55.693Z,23.50
2019-04-22T09:44:24.663Z,23.50
2019-04-22T09:46:51.993Z,23.50
2019-04-22T09:49:26.276Z,23.50
2019-04-22T09:52:01.384Z,23.50
2019-04-22T09:54:31.356Z,23.50
2019-04-22T09:56:55.088Z,23.50
2019-04-22T09:59:27.169Z,23.50
2019-04-22T10:02:13.243Z,23.50
2019-04-22T10:04:25.337Z,23.50
2019-04-22T10:06:57.502Z,23.40
2019-04-22T10:09:40.640Z,23.40
2019-04-22T10:11:55.106Z,23.50
2019-04-22T10:14:25.697Z,23.50
2019-04-22T10:16:54.003Z,23.50
2019-04-22T10:19:28.332Z,23.50
2019-04-22T10:22:39.483Z,23.50
2019-04-22T10:24:26.353Z,23.50
2019-04-22T10:26:57.091Z,23.60
2019-04-22T10:29:24.654Z,23.70
2019-04-22T10:31:57.199Z,23.80
2019-04-22T10:34:15.463Z,23.80
2019-04-22T10:36:31.196Z,23.80
2019-04-22T10:39:00.146Z,23.80
2019-04-22T10:41:28.855Z,23.80
2019-04-22T10:43:57.180Z,23.80
2019-04-22T10:46:26.368Z,23.70
2019-04-22T10:48:54.768Z,23.60
2019-04-22T10:51:24.356Z,23.60
2019-04-22T10:53:53.430Z,23.60
2019-04-22T10:56:22.983Z,23.60
2019-04-22T10:58:52.867Z,23.60
2019-04-22T11:01:21.526Z,23.60
2019-04-22T11:03:51.100Z,23.60
2019-04-22T11:06:21.198Z,23.60
2019-04-22T11:08:55.873Z,23.60
2019-04-22T11:11:32.558Z,23.60
2019-04-22T11:13:51.806Z,23.60
2019-04-22T11:16:21.410Z,23.60
2019-04-22T11:18:49.899Z,23.70
2019-04-22T11:21:18.188Z,23.70
2019-04-22T11:23:46.925Z,23.70
2019-04-22T11:26:15.823Z,23.70
2019-04-22T11:28:45.501Z,23.70
2019-04-22T11:31:14.778Z,23.70
2019-04-22T11:33:44.487Z,23.70
2019-04-22T11:36:13.585Z,23.80
2019-04-22T11:38:46.660Z,23.80
2019-04-22T11:41:12.665Z,23.80
2019-04-22T11:43:41.246Z,23.80
2019-04-22T11:46:11.465Z,23.70
2019-04-22T11:48:40.148Z,23.80
2019-04-22T11:51:09.630Z,23.80
2019-04-22T11:53:38.668Z,23.80
2019-04-22T11:56:07.143Z,23.80
2019-04-22T11:58:37.063Z,23.80
2019-04-22T12:01:08.522Z,23.70
2019-04-22T12:03:38.004Z,23.80
2019-04-22T12:06:08.269Z,23.80
2019-04-22T12:08:37.403Z,23.80
2019-04-22T12:11:07.625Z,23.80
2019-04-22T12:13:35.936Z,23.80
2019-04-22T12:16:05.308Z,23.90
2019-04-22T12:18:35.354Z,23.90
2019-04-22T12:21:05.418Z,23.90
2019-04-22T12:23:34.932Z,23.90
2019-04-22T12:26:08.617Z,23.90
2019-04-22T12:28:34.983Z,24.00
2019-04-22T12:31:03.854Z,23.90
2019-04-22T12:33:32.253Z,23.80
2019-04-22T12:36:00.615Z,23.80
2019-04-22T12:38:29.416Z,23.80
2019-04-22T12:41:02.751Z,23.80
2019-04-22T12:43:29.800Z,23.80
2019-04-22T12:45:58.373Z,23.80
2019-04-22T12:48:27.447Z,23.80
2019-04-22T12:50:58.358Z,23.80
2019-04-22T12:53:27.943Z,23.80
2019-04-22T12:55:57.399Z,23.80
2019-04-22T12:58:27.681Z,23.80
2019-04-22T13:00:57.058Z,23.80
2019-04-22T13:03:26.380Z,23.80
2019-04-22T13:05:55.967Z,23.80
2019-04-22T13:08:25.474Z,23.80
2019-04-22T13:11:02.261Z,24.00
2019-04-22T13:13:25.100Z,24.00
2019-04-22T13:15:54.966Z,24.00
2019-04-22T13:18:35.256Z,24.00
2019-04-22T13:20:54.733Z,24.00
2019-04-22T13:23:23.608Z,23.90
2019-04-22T13:25:52.739Z,23.90
2019-04-22T13:28:21.166Z,23.90
2019-04-22T13:30:50.512Z,23.90
2019-04-22T13:33:19.266Z,23.90
2019-04-22T13:35:48.052Z,23.90
2019-04-22T13:38:17.355Z,23.90
2019-04-22T13:41:05.355Z,23.80
2019-04-22T13:43:16.748Z,23.80
2019-04-22T13:45:45.713Z,23.80
2019-04-22T13:48:33.079Z,23.80
2019-04-22T13:51:21.422Z,23.90
2019-04-22T13:56:10.620Z,24.00
2019-04-22T13:58:30.219Z,24.00
2019-04-22T14:00:44.808Z,24.00
2019-04-22T14:03:32.678Z,23.90
2019-04-22T14:06:03.062Z,23.90
2019-04-22T14:08:33.078Z,24.00
2019-04-22T14:11:13.177Z,24.00
2019-04-22T14:13:32.325Z,23.90
2019-04-22T14:16:01.347Z,23.90
2019-04-22T14:18:30.766Z,23.90
2019-04-22T14:21:00.788Z,23.90
2019-04-22T14:23:30.791Z,23.90
2019-04-22T14:26:01.181Z,24.00
2019-04-22T14:28:31.270Z,24.00
2019-04-22T14:31:00.395Z,23.90
2019-04-22T14:33:30.114Z,23.90
2019-04-22T14:35:58.702Z,23.90
2019-04-22T14:38:27.957Z,23.90
2019-04-22T14:40:56.359Z,23.90
2019-04-22T14:43:57.831Z,23.90
2019-04-22T14:46:17.935Z,23.90
2019-04-22T14:48:49.754Z,23.90
2019-04-22T14:51:11.557Z,23.90
2019-04-22T14:53:44.801Z,23.90
2019-04-22T14:55:56.064Z,23.90
2019-04-22T14:58:24.709Z,23.90
2019-04-22T15:00:55.125Z,23.90
2019-04-22T15:03:23.984Z,24.00
2019-04-22T15:05:52.394Z,24.00
2019-04-22T15:08:21.387Z,24.00
2019-04-22T15:10:49.952Z,24.00
2019-04-22T15:13:18.228Z,24.00
2019-04-22T15:15:52.584Z,24.00
2019-04-22T15:18:37.715Z,24.00
2019-04-22T15:21:09.027Z,24.00
2019-04-22T15:23:38.465Z,24.10
2019-04-22T15:26:08.407Z,24.10
2019-04-22T15:28:37.553Z,24.10
2019-04-22T15:31:06.383Z,24.20
2019-04-22T15:33:35.257Z,24.10
2019-04-22T15:36:03.682Z,24.10
2019-04-22T15:38:32.267Z,24.30
2019-04-22T15:41:00.994Z,24.20
2019-04-22T15:43:32.940Z,24.10
2019-04-22T15:46:02.304Z,24.00
2019-04-22T15:48:32.313Z,24.00
2019-04-22T15:51:00.465Z,24.00
2019-04-22T15:53:29.605Z,23.90
2019-04-22T15:55:58.797Z,23.90
2019-04-22T15:58:28.149Z,24.00
2019-04-22T16:01:08.900Z,24.00
2019-04-22T16:03:26.985Z,23.90
2019-04-22T16:05:55.473Z,23.90
2019-04-22T16:08:24.754Z,23.90
2019-04-22T16:10:53.806Z,23.90
2019-04-22T16:13:26.071Z,23.90
2019-04-22T16:15:52.620Z,23.90
2019-04-22T16:18:22.281Z,23.90
2019-04-22T16:20:52.296Z,23.90
2019-04-22T16:23:40.323Z,23.90
2019-04-22T16:26:11.722Z,23.90
2019-04-22T16:28:40.430Z,23.80
2019-04-22T16:31:09.259Z,23.80
2019-04-22T16:33:40.308Z,23.80
2019-04-22T16:36:09.006Z,23.80
2019-04-22T16:38:37.558Z,23.80
2019-04-22T16:41:06.604Z,23.80
2019-04-22T16:43:36.452Z,23.80
2019-04-22T16:46:05.630Z,23.90
2019-04-22T16:48:35.722Z,23.90
2019-04-22T16:51:04.538Z,23.90
2019-04-22T16:53:32.812Z,23.90
2019-04-22T16:56:02.672Z,23.90
2019-04-22T16:58:32.625Z,23.90
2019-04-22T17:01:02.528Z,23.90
2019-04-22T17:03:34.295Z,23.90
2019-04-22T17:06:11.645Z,23.90
2019-04-22T17:08:40.302Z,23.90
2019-04-22T17:11:09.733Z,23.80
2019-04-22T17:13:39.899Z,23.80
2019-04-22T17:16:09.917Z,23.80
2019-04-22T17:18:39.397Z,23.80
2019-04-22T17:21:09.213Z,23.80
2019-04-22T17:23:38.662Z,23.80
2019-04-22T17:26:08.326Z,23.80
2019-04-22T17:28:37.421Z,23.90
2019-04-22T17:31:06.622Z,23.90
2019-04-22T17:33:36.759Z,23.90
2019-04-22T17:36:05.438Z,23.90
2019-04-22T17:38:45.415Z,23.90
2019-04-22T17:41:20.260Z,23.90
2019-04-22T17:44:00.322Z,23.90
2019-04-22T17:46:32.294Z,23.90
2019-04-22T17:49:10.468Z,23.80
2019-04-22T17:51:47.743Z,23.80
2019-04-22T17:54:11.618Z,23.80
2019-04-22T17:56:43.399Z,23.80
2019-04-22T17:59:10.378Z,23.80
2019-04-22T18:01:39.737Z,23.80
2019-04-22T18:03:56.616Z,23.80
2019-04-22T18:06:51.504Z,23.80
2019-04-22T18:09:12.850Z,23.80
2019-04-22T18:11:48.270Z,23.80
2019-04-22T18:14:29.946Z,23.80
2019-04-22T18:16:43.454Z,23.80
2019-04-22T18:19:15.375Z,23.80
2019-04-22T18:21:34.943Z,23.80
2019-04-22T18:24:01.277Z,23.80
2019-04-22T18:26:44.977Z,23.80
2019-04-22T18:29:11.472Z,23.80
2019-04-22T18:31:35.344Z,23.80
2019-04-22T18:34:06.902Z,23.80
2019-04-22T18:36:41.215Z,23.70
2019-04-22T18:39:20.439Z,23.70
2019-04-22T18:41:43.900Z,23.80
2019-04-22T18:44:20.225Z,23.80
2019-04-22T18:46:42.608Z,23.70
2019-04-22T18:49:11.058Z,23.70
2019-04-22T18:51:46.213Z,23.80
2019-04-22T18:54:30.983Z,23.70
2019-04-22T18:56:58.391Z,23.70
2019-04-22T18:59:17.314Z,23.70
2019-04-22T19:01:39.701Z,23.70
2019-04-22T19:04:14.173Z,23.70
2019-04-22T19:07:17.556Z,23.70
2019-04-22T19:09:34.972Z,23.70
2019-04-22T19:12:18.038Z,23.70
2019-04-22T19:14:41.938Z,23.70
2019-04-22T19:17:15.296Z,23.70
2019-04-22T19:19:37.439Z,23.60
2019-04-22T19:22:02.256Z,23.70
2019-04-22T19:24:28.965Z,23.70
2019-04-22T19:27:03.070Z,23.60
2019-04-22T19:29:33.192Z,23.60
2019-04-22T19:32:05.462Z,23.60
2019-04-22T19:34:33.676Z,23.60
2019-04-22T19:37:02.190Z,23.50
2019-04-22T19:39:34.223Z,23.50
2019-04-22T19:42:11.225Z,23.50
2019-04-22T19:44:33.321Z,23.50
2019-04-22T19:47:20.336Z,23.50
2019-04-22T19:49:38.373Z,23.50
2019-04-22T19:52:12.565Z,23.50
2019-04-22T19:54:37.733Z,23.50
2019-04-22T19:56:59.100Z,23.50
2019-04-22T19:59:32.325Z,23.50
2019-04-22T20:02:01.100Z,23.40
2019-04-22T20:07:08.629Z,23.40
2019-04-22T20:09:46.745Z,23.40
2019-04-22T20:12:11.846Z,23.30
2019-04-22T20:14:40.294Z,23.40
2019-04-22T20:17:07.953Z,23.40
2019-04-22T20:19:49.953Z,23.30
2019-04-22T20:22:14.472Z,23.30
2019-04-22T20:24:28.472Z,23.30
2019-04-22T20:29:53.162Z,23.30
2019-04-22T20:32:20.325Z,23.20
2019-04-22T20:34:44.576Z,23.20
2019-04-22T20:37:16.591Z,23.20
2019-04-22T20:40:00.259Z,23.20
2019-04-22T20:44:45.953Z,23.20
2019-04-22T20:47:08.994Z,23.10
2019-04-22T20:49:49.845Z,23.10
2019-04-22T20:52:22.321Z,23.00
2019-04-22T20:54:44.984Z,23.00
2019-04-22T20:57:09.468Z,23.00
2019-04-22T20:59:47.449Z,23.00
2019-04-22T21:02:13.462Z,23.00
2019-04-22T21:04:38.209Z,23.00
2019-04-22T21:07:09.271Z,23.00
2019-04-22T21:09:46.548Z,22.90
2019-04-22T21:12:09.095Z,22.90
2019-04-22T21:14:53.263Z,22.90
2019-04-22T21:17:19.774Z,22.90
2019-04-22T21:19:54.387Z,22.90
2019-04-22T21:22:18.148Z,22.90
2019-04-22T21:24:43.492Z,22.90
2019-04-22T21:27:21.035Z,22.90
2019-04-22T21:29:43.565Z,22.90
2019-04-22T21:32:19.914Z,22.90
2019-04-22T21:34:52.784Z,22.80
2019-04-22T21:37:20.243Z,22.80
2019-04-22T21:39:42.054Z,22.80
2019-04-22T21:42:15.923Z,22.80
2019-04-22T21:44:45.596Z,22.80
2019-04-22T21:47:23.800Z,22.70
2019-04-22T21:49:51.488Z,22.70
2019-04-22T21:52:17.084Z,22.70
2019-04-22T21:54:51.898Z,22.70
2019-04-22T21:57:33.918Z,22.70
2019-04-22T22:00:04.508Z,22.70
2019-04-22T22:02:39.565Z,22.80
2019-04-22T22:05:00.318Z,22.70
2019-04-22T22:07:21.368Z,22.70
2019-04-22T22:10:05.964Z,22.70
2019-04-22T22:12:39.727Z,22.70
2019-04-22T22:15:06.956Z,22.70
2019-04-22T22:17:31.359Z,22.60
2019-04-22T22:20:04.974Z,22.60
2019-04-22T22:22:48.336Z,22.60
2019-04-22T22:25:07.766Z,22.60
2019-04-22T22:27:37.573Z,22.70
2019-04-22T22:30:29.398Z,22.60
2019-04-22T22:32:40.496Z,22.60
2019-04-22T22:35:06.762Z,22.60
2019-04-22T22:37:29.625Z,22.50
2019-04-22T22:39:55.615Z,22.50
2019-04-22T22:42:25.694Z,22.50
2019-04-22T22:44:58.862Z,22.50
2019-04-22T22:47:38.358Z,22.50
2019-04-22T22:50:12.194Z,22.50
2019-04-22T22:52:53.650Z,22.50
2019-04-22T22:55:10.893Z,22.50
2019-04-22T22:57:39.999Z,22.60
2019-04-22T23:00:07.926Z,22.70
2019-04-22T23:02:59.525Z,22.70
2019-04-22T23:05:10.880Z,22.70
2019-04-22T23:07:42.445Z,22.80
2019-04-22T23:10:07.643Z,22.80
2019-04-22T23:12:49.524Z,22.90
2019-04-22T23:15:06.193Z,22.90
2019-04-22T23:17:25.426Z,22.90
2019-04-22T23:19:52.777Z,22.90
2019-04-22T23:22:28.442Z,22.90
2019-04-22T23:25:30.179Z,22.90
2019-04-22T23:27:46.360Z,23.00
2019-04-22T23:30:33.627Z,23.00
2019-04-22T23:33:26.542Z,23.00
2019-04-22T23:35:51.859Z,23.00
2019-04-22T23:38:31.986Z,23.00
2019-04-22T23:41:01.653Z,23.00
2019-04-22T23:43:34.226Z,23.00
2019-04-22T23:46:02.696Z,23.10
2019-04-22T23:48:27.167Z,23.10
2019-04-22T23:51:04.511Z,23.10
2019-04-22T23:53:57.507Z,23.10
2019-04-22T23:56:04.190Z,23.10
